createdAt,value
2023-02-19T00:00:25.757Z,1022.80
2023-02-19T00:01:26.647Z,1022.77
2023-02-19T00:02:27.514Z,1022.79
2023-02-19T00:03:28.410Z,1022.76
2023-02-19T00:04:29.381Z,1022.74
2023-02-19T00:05:30.286Z,1022.74
2023-02-19T00:06:31.146Z,1022.75
2023-02-19T00:07:32.051Z,1022.73
2023-02-19T00:08:32.965Z,1022.72
2023-02-19T00:09:33.863Z,1022.70
2023-02-19T00:10:34.746Z,1022.68
2023-02-19T00:11:35.654Z,1022.68
2023-02-19T00:12:36.345Z,1022.65
2023-02-19T00:13:37.227Z,1022.64
2023-02-19T00:14:38.121Z,1022.63
2023-02-19T00:15:39.047Z,1022.63
2023-02-19T00:16:39.903Z,1022.64
2023-02-19T00:17:40.807Z,1022.66
2023-02-19T00:18:41.649Z,1022.66
2023-02-19T00:19:42.558Z,1022.68
2023-02-19T00:20:43.439Z,1022.68
2023-02-19T00:21:44.315Z,1022.65
2023-02-19T00:22:45.200Z,1022.67
2023-02-19T00:23:46.120Z,1022.64
2023-02-19T00:24:49.205Z,1022.62
2023-02-19T00:25:47.613Z,1022.61
2023-02-19T00:26:48.497Z,1022.64
2023-02-19T00:27:49.383Z,1022.67
2023-02-19T00:28:50.286Z,1022.67
2023-02-19T00:29:51.208Z,1022.65
2023-02-19T00:30:52.105Z,1022.64
2023-02-19T00:31:53.066Z,1022.64
2023-02-19T00:32:53.469Z,1022.66
2023-02-19T00:33:54.350Z,1022.66
2023-02-19T00:34:55.252Z,1022.65
2023-02-19T00:35:56.170Z,1022.60
2023-02-19T00:36:57.040Z,1022.56
2023-02-19T00:37:57.914Z,1022.54
2023-02-19T00:38:58.807Z,1022.53
2023-02-19T00:39:59.716Z,1022.55
2023-02-19T00:41:00.599Z,1022.55
2023-02-19T00:42:01.470Z,1022.58
2023-02-19T00:43:02.359Z,1022.60
2023-02-19T00:44:03.250Z,1022.61
2023-02-19T00:45:04.122Z,1022.56
2023-02-19T00:46:05.062Z,1022.50
2023-02-19T00:47:05.906Z,1022.49
2023-02-19T00:48:06.782Z,1022.50
2023-02-19T00:49:07.665Z,1022.46
2023-02-19T00:50:08.548Z,1022.44
2023-02-19T00:51:09.821Z,1022.44
2023-02-19T00:52:10.296Z,1022.45
2023-02-19T00:53:11.199Z,1022.45
2023-02-19T00:54:12.101Z,1022.42
2023-02-19T00:55:13.006Z,1022.38
2023-02-19T00:56:13.884Z,1022.36
2023-02-19T00:57:14.767Z,1022.36
2023-02-19T00:58:15.649Z,1022.35
2023-02-19T00:59:16.536Z,1022.35
2023-02-19T01:00:17.433Z,1022.31
2023-02-19T01:01:18.357Z,1022.29
2023-02-19T01:02:19.197Z,1022.29
2023-02-19T01:03:20.079Z,1022.29
2023-02-19T01:04:21.011Z,1022.32
2023-02-19T01:05:21.890Z,1022.35
2023-02-19T01:06:22.747Z,1022.31
2023-02-19T01:07:23.627Z,1022.29
2023-02-19T01:08:24.548Z,1022.28
2023-02-19T01:09:25.391Z,1022.30
2023-02-19T01:10:26.274Z,1022.26
2023-02-19T01:11:27.156Z,1022.27
2023-02-19T01:12:28.038Z,1022.29
2023-02-19T01:13:28.953Z,1022.29
2023-02-19T01:14:29.828Z,1022.29
2023-02-19T01:15:30.713Z,1022.30
2023-02-19T01:16:31.611Z,1022.27
2023-02-19T01:17:32.478Z,1022.26
2023-02-19T01:18:33.349Z,1022.29
2023-02-19T01:19:34.271Z,1022.36
2023-02-19T01:20:35.139Z,1022.38
2023-02-19T01:21:36.024Z,1022.35
2023-02-19T01:22:36.893Z,1022.32
2023-02-19T01:23:37.774Z,1022.28
2023-02-19T01:24:38.651Z,1022.27
2023-02-19T01:25:39.593Z,1022.27
2023-02-19T01:26:40.440Z,1022.31
2023-02-19T01:27:41.312Z,1022.30
2023-02-19T01:28:42.182Z,1022.32
2023-02-19T01:29:43.080Z,1022.29
2023-02-19T01:30:44.009Z,1022.25
2023-02-19T01:31:45.028Z,1022.21
2023-02-19T01:32:45.375Z,1022.19
2023-02-19T01:33:46.254Z,1022.14
2023-02-19T01:34:47.143Z,1022.08
2023-02-19T01:35:48.030Z,1022.04
2023-02-19T01:36:48.914Z,1022.04
2023-02-19T01:37:49.801Z,1022.08
2023-02-19T01:38:50.730Z,1022.04
2023-02-19T01:39:51.577Z,1022.03
2023-02-19T01:40:52.469Z,1022.03
2023-02-19T01:41:53.353Z,1022.03
2023-02-19T01:42:54.235Z,1022.01
2023-02-19T01:43:55.115Z,1021.99
2023-02-19T01:44:56.034Z,1022.00
2023-02-19T01:45:56.891Z,1021.98
2023-02-19T01:46:57.790Z,1021.98
2023-02-19T01:47:58.653Z,1021.98
2023-02-19T01:48:59.533Z,1021.94
2023-02-19T01:50:00.430Z,1021.92
2023-02-19T01:51:01.372Z,1021.94
2023-02-19T01:52:02.249Z,1021.97
2023-02-19T01:53:03.115Z,1021.99
2023-02-19T01:54:04.012Z,1021.93
2023-02-19T01:55:04.909Z,1021.90
2023-02-19T01:56:05.783Z,1021.91
2023-02-19T01:57:06.766Z,1021.91
2023-02-19T01:58:07.594Z,1021.87
2023-02-19T01:59:08.478Z,1021.90
2023-02-19T02:00:09.345Z,1021.91
2023-02-19T02:01:10.657Z,1021.93
2023-02-19T02:02:10.759Z,1021.91
2023-02-19T02:03:11.642Z,1021.90
2023-02-19T02:04:12.486Z,1021.85
2023-02-19T02:05:13.361Z,1021.80
2023-02-19T02:06:14.251Z,1021.77
2023-02-19T02:07:15.135Z,1021.77
2023-02-19T02:08:16.024Z,1021.76
2023-02-19T02:09:16.952Z,1021.77
2023-02-19T02:10:17.786Z,1021.74
2023-02-19T02:11:18.689Z,1021.73
2023-02-19T02:12:19.591Z,1021.72
2023-02-19T02:13:20.495Z,1021.68
2023-02-19T02:14:21.378Z,1021.67
2023-02-19T02:15:22.291Z,1021.68
2023-02-19T02:16:23.236Z,1021.64
2023-02-19T02:17:24.131Z,1021.61
2023-02-19T02:18:24.998Z,1021.62
2023-02-19T02:19:25.888Z,1021.65
2023-02-19T02:20:26.780Z,1021.65
2023-02-19T02:21:27.719Z,1021.64
2023-02-19T02:22:28.572Z,1021.63
2023-02-19T02:23:29.448Z,1021.59
2023-02-19T02:24:30.349Z,1021.56
2023-02-19T02:25:31.236Z,1021.56
2023-02-19T02:26:32.124Z,1021.59
2023-02-19T02:27:33.048Z,1021.61
2023-02-19T02:28:33.893Z,1021.61
2023-02-19T02:29:34.767Z,1021.55
2023-02-19T02:30:35.648Z,1021.51
2023-02-19T02:31:36.648Z,1021.51
2023-02-19T02:32:37.504Z,1021.52
2023-02-19T02:33:38.398Z,1021.56
2023-02-19T02:34:39.257Z,1021.53
2023-02-19T02:35:40.141Z,1021.49
2023-02-19T02:36:41.049Z,1021.46
2023-02-19T02:37:41.913Z,1021.47
2023-02-19T02:38:42.795Z,1021.50
2023-02-19T02:39:43.747Z,1021.54
2023-02-19T02:40:44.570Z,1021.53
2023-02-19T02:41:45.453Z,1021.49
2023-02-19T02:42:46.343Z,1021.45
2023-02-19T02:43:47.209Z,1021.43
2023-02-19T02:44:48.093Z,1021.44
2023-02-19T02:45:49.073Z,1021.45
2023-02-19T02:46:49.923Z,1021.44
2023-02-19T02:47:50.807Z,1021.44
2023-02-19T02:48:51.688Z,1021.42
2023-02-19T02:49:52.572Z,1021.35
2023-02-19T02:50:53.456Z,1021.36
2023-02-19T02:51:54.391Z,1021.38
2023-02-19T02:52:55.246Z,1021.36
2023-02-19T02:53:56.120Z,1021.30
2023-02-19T02:54:57.003Z,1021.30
2023-02-19T02:55:57.879Z,1021.28
2023-02-19T02:56:58.775Z,1021.26
2023-02-19T02:57:59.695Z,1021.23
2023-02-19T02:59:00.554Z,1021.23
2023-02-19T03:00:01.429Z,1021.28
2023-02-19T03:01:02.358Z,1021.29
2023-02-19T03:02:03.245Z,1021.28
2023-02-19T03:03:04.082Z,1021.22
2023-02-19T03:04:05.008Z,1021.24
2023-02-19T03:05:05.860Z,1021.24
2023-02-19T03:06:06.740Z,1021.23
2023-02-19T03:07:07.656Z,1021.21
2023-02-19T03:08:08.543Z,1021.15
2023-02-19T03:09:09.444Z,1021.11
2023-02-19T03:10:10.362Z,1021.11
2023-02-19T03:11:11.475Z,1021.09
2023-02-19T03:12:11.896Z,1021.07
2023-02-19T03:13:12.780Z,1021.04
2023-02-19T03:14:13.663Z,1021.10
2023-02-19T03:15:14.545Z,1021.11
2023-02-19T03:16:15.548Z,1021.08
2023-02-19T03:17:16.406Z,1021.05
2023-02-19T03:18:17.289Z,1021.01
2023-02-19T03:19:18.187Z,1021.00
2023-02-19T03:20:19.061Z,1020.98
2023-02-19T03:21:19.936Z,1021.03
2023-02-19T03:22:20.892Z,1021.04
2023-02-19T03:23:21.728Z,1020.98
2023-02-19T03:24:22.610Z,1020.95
2023-02-19T03:25:23.530Z,1020.91
2023-02-19T03:26:24.400Z,1020.88
2023-02-19T03:27:25.292Z,1020.88
2023-02-19T03:28:26.217Z,1020.86
2023-02-19T03:29:27.088Z,1020.84
2023-02-19T03:30:27.990Z,1020.85
2023-02-19T03:31:28.979Z,1020.82
2023-02-19T03:32:29.369Z,1020.76
2023-02-19T03:33:30.257Z,1020.66
2023-02-19T03:34:31.176Z,1020.61
2023-02-19T03:35:32.063Z,1020.56
2023-02-19T03:36:32.954Z,1020.53
2023-02-19T03:37:33.837Z,1020.53
2023-02-19T03:38:34.720Z,1020.55
2023-02-19T03:39:35.618Z,1020.59
2023-02-19T03:40:36.497Z,1020.58
2023-02-19T03:41:37.368Z,1020.53
2023-02-19T03:42:38.268Z,1020.50
2023-02-19T03:43:39.145Z,1020.48
2023-02-19T03:44:40.055Z,1020.48
2023-02-19T03:45:40.983Z,1020.48
2023-02-19T03:46:41.825Z,1020.49
2023-02-19T03:47:42.714Z,1020.50
2023-02-19T03:48:43.597Z,1020.51
2023-02-19T03:49:44.479Z,1020.56
2023-02-19T03:50:45.352Z,1020.60
2023-02-19T03:51:46.237Z,1020.60
2023-02-19T03:52:47.146Z,1020.60
2023-02-19T03:53:48.017Z,1020.59
2023-02-19T03:54:48.904Z,1020.57
2023-02-19T03:55:49.782Z,1020.61
2023-02-19T03:56:50.675Z,1020.62
2023-02-19T03:57:51.597Z,1020.57
2023-02-19T03:58:52.424Z,1020.53
2023-02-19T03:59:53.306Z,1020.55
2023-02-19T04:00:54.186Z,1020.60
2023-02-19T04:01:55.080Z,1020.61
2023-02-19T04:02:55.956Z,1020.62
2023-02-19T04:03:56.841Z,1020.60
2023-02-19T04:04:57.774Z,1020.54
2023-02-19T04:05:58.602Z,1020.47
2023-02-19T04:06:59.500Z,1020.43
2023-02-19T04:08:00.412Z,1020.50
2023-02-19T04:09:01.304Z,1020.62
2023-02-19T04:10:02.218Z,1020.63
2023-02-19T04:11:03.131Z,1020.68
2023-02-19T04:12:03.987Z,1020.72
2023-02-19T04:13:04.888Z,1020.69
2023-02-19T04:14:05.798Z,1020.69
2023-02-19T04:15:06.697Z,1020.76
2023-02-19T04:16:07.596Z,1020.75
2023-02-19T04:17:08.492Z,1020.80
2023-02-19T04:18:09.402Z,1020.85
2023-02-19T04:19:10.270Z,1020.87
2023-02-19T04:20:11.162Z,1020.89
2023-02-19T04:21:12.377Z,1020.91
2023-02-19T04:22:12.830Z,1020.93
2023-02-19T04:23:13.727Z,1020.99
2023-02-19T04:24:14.611Z,1020.99
2023-02-19T04:25:15.500Z,1020.98
2023-02-19T04:26:16.416Z,1020.93
2023-02-19T04:27:17.242Z,1020.86
2023-02-19T04:28:18.125Z,1020.81
2023-02-19T04:29:19.005Z,1020.82
2023-02-19T04:30:19.900Z,1020.84
2023-02-19T04:31:20.957Z,1020.90
2023-02-19T04:32:21.342Z,1020.90
2023-02-19T04:33:22.240Z,1020.81
2023-02-19T04:34:23.127Z,1020.70
2023-02-19T04:35:24.010Z,1020.73
2023-02-19T04:36:24.893Z,1020.72
2023-02-19T04:37:25.797Z,1020.70
2023-02-19T04:38:26.704Z,1020.66
2023-02-19T04:39:27.585Z,1020.60
2023-02-19T04:40:28.445Z,1020.59
2023-02-19T04:41:29.332Z,1020.67
2023-02-19T04:42:30.220Z,1020.66
2023-02-19T04:43:31.106Z,1020.60
2023-02-19T04:44:31.993Z,1020.60
2023-02-19T04:45:32.869Z,1020.65
2023-02-19T04:46:33.754Z,1020.82
2023-02-19T04:47:34.645Z,1021.00
2023-02-19T04:48:35.529Z,1020.90
2023-02-19T04:49:36.416Z,1020.66
2023-02-19T04:50:37.287Z,1020.61
2023-02-19T04:51:38.180Z,1020.70
2023-02-19T04:52:39.061Z,1020.80
2023-02-19T04:53:39.951Z,1020.82
2023-02-19T04:54:40.830Z,1020.84
2023-02-19T04:55:41.706Z,1020.84
2023-02-19T04:56:42.580Z,1020.91
2023-02-19T04:57:43.470Z,1020.95
2023-02-19T04:58:44.343Z,1020.93
2023-02-19T04:59:45.229Z,1021.01
2023-02-19T05:00:46.118Z,1021.05
2023-02-19T05:01:47.095Z,1021.07
2023-02-19T05:02:47.513Z,1021.11
2023-02-19T05:03:48.386Z,1021.08
2023-02-19T05:04:49.271Z,1021.03
2023-02-19T05:05:50.152Z,1021.05
2023-02-19T05:06:51.027Z,1021.06
2023-02-19T05:07:51.924Z,1021.09
2023-02-19T05:08:52.806Z,1021.07
2023-02-19T05:09:53.721Z,1021.06
2023-02-19T05:10:54.573Z,1021.19
2023-02-19T05:11:55.453Z,1021.20
2023-02-19T05:12:58.021Z,1021.31
2023-02-19T05:13:56.984Z,1021.44
2023-02-19T05:14:57.889Z,1021.59
2023-02-19T05:15:58.893Z,1021.69
2023-02-19T05:16:59.726Z,1021.76
2023-02-19T05:18:00.651Z,1021.72
2023-02-19T05:19:01.509Z,1021.64
2023-02-19T05:20:02.439Z,1021.47
2023-02-19T05:21:03.283Z,1021.34
2023-02-19T05:22:04.175Z,1021.29
2023-02-19T05:23:05.081Z,1021.34
2023-02-19T05:24:05.985Z,1021.32
2023-02-19T05:25:06.846Z,1021.29
2023-02-19T05:26:07.729Z,1021.30
2023-02-19T05:27:08.611Z,1021.33
2023-02-19T05:28:09.510Z,1021.30
2023-02-19T05:29:10.394Z,1021.33
2023-02-19T05:30:11.342Z,1021.36
2023-02-19T05:31:12.598Z,1021.52
2023-02-19T05:32:12.741Z,1021.45
2023-02-19T05:33:13.598Z,1021.31
2023-02-19T05:34:14.475Z,1021.30
2023-02-19T05:35:15.357Z,1021.40
2023-02-19T05:36:16.288Z,1021.46
2023-02-19T05:37:17.126Z,1021.40
2023-02-19T05:38:18.038Z,1021.36
2023-02-19T05:39:18.917Z,1021.27
2023-02-19T05:40:19.800Z,1021.23
2023-02-19T05:41:20.673Z,1021.37
2023-02-19T05:42:21.595Z,1021.72
2023-02-19T05:43:22.474Z,1021.73
2023-02-19T05:44:23.372Z,1021.63
2023-02-19T05:45:24.271Z,1021.71
2023-02-19T05:46:25.230Z,1021.82
2023-02-19T05:47:26.091Z,1021.78
2023-02-19T05:48:27.061Z,1021.76
2023-02-19T05:49:27.918Z,1021.80
2023-02-19T05:50:28.778Z,1021.80
2023-02-19T05:51:29.742Z,1021.72
2023-02-19T05:52:30.623Z,1021.64
2023-02-19T05:53:31.533Z,1021.59
2023-02-19T05:54:32.464Z,1021.65
2023-02-19T05:55:33.300Z,1021.65
2023-02-19T05:56:34.201Z,1021.69
2023-02-19T05:57:35.098Z,1021.64
2023-02-19T05:58:36.027Z,1021.63
2023-02-19T05:59:36.875Z,1021.61
2023-02-19T06:00:37.784Z,1021.59
2023-02-19T06:01:38.648Z,1021.66
2023-02-19T06:02:39.536Z,1021.73
2023-02-19T06:03:40.343Z,1021.70
2023-02-19T06:04:41.159Z,1021.65
2023-02-19T06:05:41.990Z,1021.59
2023-02-19T06:06:42.857Z,1021.57
2023-02-19T06:07:43.656Z,1021.55
2023-02-19T06:08:44.499Z,1021.49
2023-02-19T06:09:45.375Z,1021.50
2023-02-19T06:10:46.279Z,1021.54
2023-02-19T06:11:47.144Z,1021.51
2023-02-19T06:12:48.061Z,1021.54
2023-02-19T06:13:48.885Z,1021.55
2023-02-19T06:14:49.718Z,1021.60
2023-02-19T06:15:50.596Z,1021.62
2023-02-19T06:16:51.381Z,1021.60
2023-02-19T06:17:52.207Z,1021.57
2023-02-19T06:18:53.091Z,1021.57
2023-02-19T06:19:53.893Z,1021.58
2023-02-19T06:20:54.715Z,1021.54
2023-02-19T06:21:55.547Z,1021.60
2023-02-19T06:22:56.384Z,1021.53
2023-02-19T06:23:57.208Z,1021.54
2023-02-19T06:24:58.033Z,1021.62
2023-02-19T06:25:58.933Z,1021.68
2023-02-19T06:26:59.709Z,1021.73
2023-02-19T06:28:00.532Z,1021.74
2023-02-19T06:29:01.369Z,1021.78
2023-02-19T06:30:02.248Z,1021.74
2023-02-19T06:31:03.070Z,1021.69
2023-02-19T06:32:03.973Z,1021.68
2023-02-19T06:33:04.763Z,1021.71
2023-02-19T06:34:05.635Z,1021.67
2023-02-19T06:35:06.430Z,1021.72
2023-02-19T06:36:07.273Z,1021.67
2023-02-19T06:37:08.114Z,1021.64
2023-02-19T06:38:08.912Z,1021.60
2023-02-19T06:39:09.747Z,1021.50
2023-02-19T06:40:10.566Z,1021.53
2023-02-19T06:41:11.737Z,1021.56
2023-02-19T06:42:12.191Z,1021.50
2023-02-19T06:43:12.991Z,1021.60
2023-02-19T06:44:13.860Z,1021.64
2023-02-19T06:45:14.700Z,1021.67
2023-02-19T06:46:15.576Z,1021.68
2023-02-19T06:47:16.391Z,1021.66
2023-02-19T06:48:17.224Z,1021.71
2023-02-19T06:49:18.074Z,1021.74
2023-02-19T06:50:18.882Z,1021.72
2023-02-19T06:51:19.721Z,1021.75
2023-02-19T06:52:20.608Z,1021.76
2023-02-19T06:53:21.393Z,1021.64
2023-02-19T06:54:22.229Z,1021.65
2023-02-19T06:55:23.060Z,1021.65
2023-02-19T06:56:23.889Z,1021.69
2023-02-19T06:57:24.732Z,1021.69
2023-02-19T06:58:25.566Z,1021.73
2023-02-19T06:59:26.396Z,1021.79
2023-02-19T07:00:27.217Z,1021.85
2023-02-19T07:01:28.065Z,1021.87
2023-02-19T07:02:28.873Z,1021.88
2023-02-19T07:03:29.714Z,1021.88
2023-02-19T07:04:30.667Z,1021.94
2023-02-19T07:05:31.491Z,1021.92
2023-02-19T07:06:32.325Z,1021.93
2023-02-19T07:07:33.187Z,1021.94
2023-02-19T07:08:34.000Z,1022.01
2023-02-19T07:09:34.832Z,1022.10
2023-02-19T07:10:35.660Z,1022.11
2023-02-19T07:11:36.586Z,1022.12
2023-02-19T07:12:37.366Z,1022.15
2023-02-19T07:13:38.191Z,1022.15
2023-02-19T07:14:39.020Z,1022.15
2023-02-19T07:15:39.871Z,1022.18
2023-02-19T07:16:40.727Z,1022.20
2023-02-19T07:17:41.525Z,1022.21
2023-02-19T07:18:42.396Z,1022.19
2023-02-19T07:19:43.262Z,1022.19
2023-02-19T07:20:44.034Z,1022.24
2023-02-19T07:21:44.870Z,1022.29
2023-02-19T07:22:45.693Z,1022.28
2023-02-19T07:23:46.525Z,1022.21
2023-02-19T07:24:48.028Z,1022.18
2023-02-19T07:25:47.907Z,1022.27
2023-02-19T07:26:48.691Z,1022.33
2023-02-19T07:27:49.511Z,1022.34
2023-02-19T07:28:50.386Z,1022.35
2023-02-19T07:29:51.200Z,1022.32
2023-02-19T07:30:52.100Z,1022.30
2023-02-19T07:31:52.941Z,1022.27
2023-02-19T07:32:53.739Z,1022.27
2023-02-19T07:33:54.575Z,1022.25
2023-02-19T07:34:55.409Z,1022.25
2023-02-19T07:35:56.251Z,1022.25
2023-02-19T07:36:57.076Z,1022.27
2023-02-19T07:37:57.898Z,1022.27
2023-02-19T07:38:58.726Z,1022.27
2023-02-19T07:39:59.569Z,1022.24
2023-02-19T07:41:00.395Z,1022.25
2023-02-19T07:42:01.227Z,1022.28
2023-02-19T07:43:02.088Z,1022.24
2023-02-19T07:44:02.890Z,1022.28
2023-02-19T07:45:03.735Z,1022.29
2023-02-19T07:46:04.638Z,1022.27
2023-02-19T07:47:05.490Z,1022.28
2023-02-19T07:48:06.275Z,1022.31
2023-02-19T07:49:07.106Z,1022.35
2023-02-19T07:50:07.942Z,1022.40
2023-02-19T07:51:08.958Z,1022.39
2023-02-19T07:52:09.411Z,1022.35
2023-02-19T07:53:10.175Z,1022.35
2023-02-19T07:54:11.002Z,1022.34
2023-02-19T07:55:11.889Z,1022.33
2023-02-19T07:56:12.745Z,1022.31
2023-02-19T07:57:13.563Z,1022.32
2023-02-19T07:58:14.396Z,1022.32
2023-02-19T07:59:15.220Z,1022.35
2023-02-19T08:00:16.058Z,1022.40
2023-02-19T08:01:16.967Z,1022.47
2023-02-19T08:02:17.736Z,1022.47
2023-02-19T08:03:18.592Z,1022.43
2023-02-19T08:04:19.443Z,1022.42
2023-02-19T08:05:20.248Z,1022.51
2023-02-19T08:06:21.085Z,1022.55
2023-02-19T08:07:22.046Z,1022.50
2023-02-19T08:08:22.798Z,1022.45
2023-02-19T08:09:23.645Z,1022.50
2023-02-19T08:10:24.471Z,1022.54
2023-02-19T08:11:25.298Z,1022.57
2023-02-19T08:12:26.184Z,1022.65
2023-02-19T08:13:26.974Z,1022.69
2023-02-19T08:14:27.809Z,1022.70
2023-02-19T08:15:28.649Z,1022.67
2023-02-19T08:16:42.679Z,1022.68
2023-02-19T08:17:31.479Z,1022.75
2023-02-19T08:18:30.762Z,1022.88
2023-02-19T08:19:31.587Z,1022.93
2023-02-19T08:20:32.423Z,1022.90
2023-02-19T08:21:34.426Z,1022.85
2023-02-19T08:22:33.856Z,1022.84
2023-02-19T08:23:34.651Z,1022.82
2023-02-19T08:24:35.472Z,1022.83
2023-02-19T08:25:36.314Z,1022.87
2023-02-19T08:26:37.145Z,1022.85
2023-02-19T08:27:37.982Z,1022.78
2023-02-19T08:28:38.815Z,1022.77
2023-02-19T08:29:39.642Z,1022.78
2023-02-19T08:30:40.554Z,1022.77
2023-02-19T08:31:41.411Z,1022.81
2023-02-19T08:32:42.203Z,1022.81
2023-02-19T08:33:43.038Z,1022.77
2023-02-19T08:34:43.852Z,1022.80
2023-02-19T08:35:44.693Z,1022.85
2023-02-19T08:36:45.521Z,1022.88
2023-02-19T08:37:46.343Z,1022.86
2023-02-19T08:38:47.184Z,1022.84
2023-02-19T08:39:48.007Z,1022.84
2023-02-19T08:40:48.847Z,1022.89
2023-02-19T08:41:49.674Z,1022.94
2023-02-19T08:42:50.493Z,1022.95
2023-02-19T08:43:51.327Z,1022.97
2023-02-19T08:44:52.167Z,1023.03
2023-02-19T08:45:53.012Z,1023.09
2023-02-19T08:46:53.827Z,1023.08
2023-02-19T08:47:54.650Z,1023.04
2023-02-19T08:48:55.498Z,1022.97
2023-02-19T08:49:56.335Z,1022.97
2023-02-19T08:50:57.176Z,1023.03
2023-02-19T08:51:58.010Z,1023.06
2023-02-19T08:52:58.817Z,1023.06
2023-02-19T08:53:59.641Z,1023.02
2023-02-19T08:55:00.467Z,1022.95
2023-02-19T08:56:01.439Z,1022.98
2023-02-19T08:57:02.279Z,1023.02
2023-02-19T08:58:03.097Z,1022.98
2023-02-19T08:59:03.917Z,1022.92
2023-02-19T09:00:04.746Z,1022.93
2023-02-19T09:01:05.631Z,1023.03
2023-02-19T09:02:06.423Z,1023.06
2023-02-19T09:03:07.254Z,1023.06
2023-02-19T09:04:08.107Z,1023.05
2023-02-19T09:05:08.903Z,1023.06
2023-02-19T09:06:10.093Z,1023.09
2023-02-19T09:07:10.532Z,1023.09
2023-02-19T09:08:11.362Z,1023.07
2023-02-19T09:09:12.192Z,1023.07
2023-02-19T09:10:13.026Z,1023.11
2023-02-19T09:11:14.212Z,1023.13
2023-02-19T09:12:14.657Z,1023.14
2023-02-19T09:13:15.473Z,1023.11
2023-02-19T09:14:16.302Z,1023.09
2023-02-19T09:15:17.130Z,1023.09
2023-02-19T09:16:17.965Z,1023.11
2023-02-19T09:17:18.809Z,1023.15
2023-02-19T09:18:19.625Z,1023.17
2023-02-19T09:19:20.452Z,1023.19
2023-02-19T09:20:21.288Z,1023.18
2023-02-19T09:21:22.120Z,1023.16
2023-02-19T09:22:22.949Z,1023.16
2023-02-19T09:23:23.774Z,1023.21
2023-02-19T09:24:24.611Z,1023.23
2023-02-19T09:25:25.435Z,1023.25
2023-02-19T09:26:26.293Z,1023.24
2023-02-19T09:27:27.233Z,1023.25
2023-02-19T09:28:28.097Z,1023.26
2023-02-19T09:29:28.886Z,1023.30
2023-02-19T09:30:29.751Z,1023.33
2023-02-19T09:31:30.718Z,1023.35
2023-02-19T09:32:31.038Z,1023.35
2023-02-19T09:33:31.874Z,1023.36
2023-02-19T09:34:32.710Z,1023.31
2023-02-19T09:35:33.526Z,1023.24
2023-02-19T09:36:34.375Z,1023.18
2023-02-19T09:37:35.199Z,1023.22
2023-02-19T09:38:36.026Z,1023.26
2023-02-19T09:39:36.857Z,1023.28
2023-02-19T09:40:37.681Z,1023.32
2023-02-19T09:41:38.509Z,1023.35
2023-02-19T09:42:39.343Z,1023.34
2023-02-19T09:43:40.178Z,1023.35
2023-02-19T09:44:40.998Z,1023.34
2023-02-19T09:45:41.815Z,1023.35
2023-02-19T09:46:42.652Z,1023.35
2023-02-19T09:47:43.474Z,1023.35
2023-02-19T09:48:44.300Z,1023.36
2023-02-19T09:49:45.138Z,1023.36
2023-02-19T09:50:45.957Z,1023.36
2023-02-19T09:51:46.802Z,1023.43
2023-02-19T09:52:47.617Z,1023.47
2023-02-19T09:53:48.434Z,1023.51
2023-02-19T09:54:49.267Z,1023.50
2023-02-19T09:55:50.118Z,1023.49
2023-02-19T09:56:50.937Z,1023.48
2023-02-19T09:57:51.438Z,1023.47
2023-02-19T09:58:52.253Z,1023.48
2023-02-19T09:59:53.080Z,1023.49
2023-02-19T10:00:53.943Z,1023.48
2023-02-19T10:01:54.838Z,1023.55
2023-02-19T10:02:55.608Z,1023.58
2023-02-19T10:03:56.440Z,1023.57
2023-02-19T10:04:57.287Z,1023.55
2023-02-19T10:05:58.085Z,1023.53
2023-02-19T10:06:58.922Z,1023.46
2023-02-19T10:07:59.755Z,1023.44
2023-02-19T10:09:00.582Z,1023.45
2023-02-19T10:10:01.422Z,1023.44
2023-02-19T10:11:02.235Z,1023.47
2023-02-19T10:12:03.064Z,1023.44
2023-02-19T10:13:03.892Z,1023.50
2023-02-19T10:14:04.723Z,1023.56
2023-02-19T10:15:05.547Z,1023.61
2023-02-19T10:16:06.465Z,1023.60
2023-02-19T10:17:07.289Z,1023.59
2023-02-19T10:18:10.888Z,1023.60
2023-02-19T10:19:08.969Z,1023.59
2023-02-19T10:20:09.793Z,1023.56
2023-02-19T10:21:11.030Z,1023.60
2023-02-19T10:22:11.460Z,1023.66
2023-02-19T10:23:12.288Z,1023.68
2023-02-19T10:24:13.107Z,1023.74
2023-02-19T10:25:13.938Z,1023.73
2023-02-19T10:26:14.763Z,1023.70
2023-02-19T10:27:15.600Z,1023.70
2023-02-19T10:28:16.424Z,1023.74
2023-02-19T10:29:17.253Z,1023.75
2023-02-19T10:30:18.139Z,1023.76
2023-02-19T10:31:20.819Z,1023.78
2023-02-19T10:32:19.876Z,1023.79
2023-02-19T10:33:20.654Z,1023.78
2023-02-19T10:34:21.474Z,1023.79
2023-02-19T10:35:22.317Z,1023.77
2023-02-19T10:36:23.132Z,1023.75
2023-02-19T10:37:23.974Z,1023.77
2023-02-19T10:38:24.810Z,1023.81
2023-02-19T10:39:25.632Z,1023.85
2023-02-19T10:40:26.463Z,1023.90
2023-02-19T10:41:27.291Z,1023.92
2023-02-19T10:42:28.124Z,1023.91
2023-02-19T10:43:28.955Z,1023.87
2023-02-19T10:44:29.799Z,1023.91
2023-02-19T10:45:30.612Z,1023.95
2023-02-19T10:46:31.436Z,1023.98
2023-02-19T10:47:32.266Z,1023.98
2023-02-19T10:48:33.123Z,1024.02
2023-02-19T10:49:33.915Z,1024.08
2023-02-19T10:50:34.749Z,1024.09
2023-02-19T10:51:35.588Z,1024.08
2023-02-19T10:52:36.414Z,1024.09
2023-02-19T10:53:37.244Z,1024.08
2023-02-19T10:54:38.073Z,1024.07
2023-02-19T10:55:38.919Z,1024.09
2023-02-19T10:56:39.740Z,1024.09
2023-02-19T10:57:40.598Z,1024.02
2023-02-19T10:58:41.420Z,1023.99
2023-02-19T10:59:42.248Z,1024.01
2023-02-19T11:00:43.093Z,1023.99
2023-02-19T11:01:43.982Z,1023.98
2023-02-19T11:02:44.779Z,1023.97
2023-02-19T11:03:45.599Z,1023.95
2023-02-19T11:04:46.430Z,1023.92
2023-02-19T11:05:47.249Z,1023.86
2023-02-19T11:06:48.089Z,1023.89
2023-02-19T11:07:48.912Z,1023.84
2023-02-19T11:08:49.770Z,1023.79
2023-02-19T11:09:50.568Z,1023.70
2023-02-19T11:10:51.388Z,1023.66
2023-02-19T11:11:52.242Z,1023.62
2023-02-19T11:12:53.066Z,1023.64
2023-02-19T11:13:53.889Z,1023.59
2023-02-19T11:14:54.719Z,1023.59
2023-02-19T11:15:55.589Z,1023.64
2023-02-19T11:16:56.526Z,1023.67
2023-02-19T11:17:57.292Z,1023.69
2023-02-19T11:18:58.113Z,1023.65
2023-02-19T11:19:58.968Z,1023.63
2023-02-19T11:20:59.767Z,1023.56
2023-02-19T11:22:00.616Z,1023.58
2023-02-19T11:23:01.454Z,1023.56
2023-02-19T11:24:02.259Z,1023.52
2023-02-19T11:25:03.086Z,1023.52
2023-02-19T11:26:03.921Z,1023.52
2023-02-19T11:27:04.764Z,1023.46
2023-02-19T11:28:05.586Z,1023.43
2023-02-19T11:29:06.408Z,1023.41
2023-02-19T11:30:07.322Z,1023.38
2023-02-19T11:31:07.852Z,1023.35
2023-02-19T11:32:08.768Z,1023.27
2023-02-19T11:33:09.796Z,1023.26
2023-02-19T11:34:10.571Z,1023.23
2023-02-19T11:35:11.423Z,1023.21
2023-02-19T11:36:12.233Z,1023.19
2023-02-19T11:37:13.059Z,1023.17
2023-02-19T11:38:13.894Z,1023.10
2023-02-19T11:39:14.770Z,1023.05
2023-02-19T11:40:15.571Z,1022.97
2023-02-19T11:41:16.388Z,1022.91
2023-02-19T11:42:17.321Z,1022.97
2023-02-19T11:43:18.095Z,1022.99
2023-02-19T11:44:18.925Z,1022.85
2023-02-19T11:45:19.743Z,1022.86
2023-02-19T11:46:20.644Z,1022.84
2023-02-19T11:47:21.433Z,1022.83
2023-02-19T11:48:22.257Z,1022.82
2023-02-19T11:49:23.080Z,1022.76
2023-02-19T11:50:23.919Z,1022.73
2023-02-19T11:51:24.728Z,1022.70
2023-02-19T11:52:25.554Z,1022.72
2023-02-19T11:53:26.405Z,1022.85
2023-02-19T11:54:27.214Z,1022.94
2023-02-19T11:55:28.035Z,1022.90
2023-02-19T11:56:28.863Z,1022.87
2023-02-19T11:57:29.690Z,1022.92
2023-02-19T11:58:30.521Z,1022.87
2023-02-19T11:59:31.361Z,1022.92
2023-02-19T12:00:32.191Z,1022.90
2023-02-19T12:01:33.020Z,1022.85
2023-02-19T12:02:33.835Z,1022.81
2023-02-19T12:03:34.662Z,1022.83
2023-02-19T12:04:37.681Z,1022.87
2023-02-19T12:05:36.101Z,1022.77
2023-02-19T12:06:36.928Z,1022.76
2023-02-19T12:07:37.768Z,1022.74
2023-02-19T12:08:38.586Z,1022.80
2023-02-19T12:09:39.409Z,1022.74
2023-02-19T12:10:40.233Z,1022.75
2023-02-19T12:11:41.052Z,1022.71
2023-02-19T12:12:41.884Z,1022.67
2023-02-19T12:13:42.735Z,1022.69
2023-02-19T12:14:43.560Z,1022.74
2023-02-19T12:15:44.380Z,1022.65